createdAt,value
2022-08-22T00:02:09.013Z,100318.23
2022-08-22T00:02:43.111Z,100306.52
2022-08-22T00:04:48.978Z,100320.17
2022-08-22T00:07:32.514Z,100322.13
2022-08-22T00:10:11.516Z,100322.73
2022-08-22T00:12:59.787Z,100323.67
2022-08-22T00:15:43.134Z,100319.27
2022-08-22T00:18:21.649Z,100322.10
2022-08-22T00:21:04.427Z,100320.98
2022-08-22T00:23:41.535Z,100317.75
2022-08-22T00:26:25.359Z,100318.92
2022-08-22T00:29:02.276Z,100319.95
2022-08-22T00:31:37.852Z,100321.59
2022-08-22T00:34:15.368Z,100326.83
2022-08-22T00:36:51.889Z,100319.95
2022-08-22T00:39:29.972Z,100322.45
2022-08-22T00:42:29.572Z,100320.61
2022-08-22T00:45:48.898Z,100326.19
2022-08-22T00:48:47.571Z,100328.71
2022-08-22T00:51:40.855Z,100329.92
2022-08-22T00:54:25.608Z,100333.09
2022-08-22T00:57:15.047Z,100337.50
2022-08-22T01:00:08.752Z,100339.16
2022-08-22T01:02:53.191Z,100335.61
2022-08-22T01:05:38.762Z,100332.34
2022-08-22T01:08:25.495Z,100338.61
2022-08-22T01:11:13.183Z,100336.50
2022-08-22T01:14:01.509Z,100339.18
2022-08-22T01:17:01.814Z,100336.20
2022-08-22T01:19:57.741Z,100338.90
2022-08-22T01:22:55.384Z,100345.96
2022-08-22T01:25:55.707Z,100344.85
2022-08-22T01:28:58.833Z,100344.58
2022-08-22T01:32:12.517Z,100342.45
2022-08-22T01:35:18.440Z,100341.39
2022-08-22T01:38:10.093Z,100349.36
2022-08-22T01:41:18.050Z,100351.10
2022-08-22T01:44:08.881Z,100348.09
2022-08-22T01:46:52.603Z,100347.40
2022-08-22T01:49:29.311Z,100352.94
2022-08-22T01:52:05.664Z,100354.83
2022-08-22T01:54:49.097Z,100344.34
2022-08-22T01:57:21.139Z,100352.80
2022-08-22T01:59:55.438Z,100349.45
2022-08-22T02:02:52.647Z,100349.31
2022-08-22T02:05:31.754Z,100350.77
2022-08-22T02:08:15.385Z,100347.35
2022-08-22T02:10:56.216Z,100347.27
2022-08-22T02:13:37.748Z,100348.17
2022-08-22T02:16:16.872Z,100347.11
2022-08-22T02:19:00.713Z,100351.65
2022-08-22T02:21:47.281Z,100351.80
2022-08-22T02:24:29.787Z,100353.95
2022-08-22T02:27:14.288Z,100359.32
2022-08-22T02:29:50.836Z,100357.36
2022-08-22T02:32:29.024Z,100358.29
2022-08-22T02:35:04.655Z,100357.98
2022-08-22T02:37:42.037Z,100359.06
2022-08-22T02:40:18.872Z,100360.77
2022-08-22T02:42:57.163Z,100364.13
2022-08-22T02:45:47.563Z,100362.87
2022-08-22T02:48:27.999Z,100363.30
2022-08-22T02:51:05.324Z,100363.43
2022-08-22T02:53:46.214Z,100358.55
2022-08-22T02:56:22.772Z,100359.25
2022-08-22T02:58:59.949Z,100358.34
2022-08-22T03:01:42.748Z,100353.93
2022-08-22T03:04:46.726Z,100356.70
2022-08-22T03:07:30.707Z,100353.90
2022-08-22T03:10:12.061Z,100354.99
2022-08-22T03:12:57.395Z,100353.42
2022-08-22T03:15:35.472Z,100351.27
2022-08-22T03:18:17.770Z,100354.42
2022-08-22T03:20:54.022Z,100356.09
2022-08-22T03:23:35.333Z,100353.30
2022-08-22T03:26:16.696Z,100347.96
2022-08-22T03:28:59.721Z,100353.34
2022-08-22T03:31:33.420Z,100347.61
2022-08-22T03:34:22.585Z,100343.25
2022-08-22T03:37:12.233Z,100346.25
2022-08-22T03:39:51.221Z,100342.42
2022-08-22T03:42:44.980Z,100347.65
2022-08-22T03:45:43.086Z,100346.70
2022-08-22T03:48:48.501Z,100348.59
2022-08-22T03:51:37.232Z,100337.98
2022-08-22T03:54:52.371Z,100341.17
2022-08-22T03:57:55.478Z,100343.39
2022-08-22T04:01:00.202Z,100345.30
2022-08-22T04:03:54.834Z,100346.40
2022-08-22T04:06:56.874Z,100346.03
2022-08-22T04:09:54.480Z,100342.77
2022-08-22T04:12:48.508Z,100347.80
2022-08-22T04:15:41.000Z,100348.17
2022-08-22T04:18:44.668Z,100349.98
2022-08-22T04:21:32.042Z,100351.73
2022-08-22T04:24:17.020Z,100348.97
2022-08-22T04:26:52.867Z,100347.55
2022-08-22T04:29:28.853Z,100352.14
2022-08-22T04:32:07.202Z,100358.73
2022-08-22T04:34:43.714Z,100360.06
2022-08-22T04:37:24.941Z,100359.21
2022-08-22T04:40:01.806Z,100358.73
2022-08-22T04:42:37.219Z,100360.97
2022-08-22T04:45:15.415Z,100363.70
2022-08-22T04:47:53.905Z,100364.29
2022-08-22T04:50:30.500Z,100357.55
2022-08-22T04:53:18.017Z,100359.19
2022-08-22T04:56:05.378Z,100360.30
2022-08-22T04:58:48.798Z,100362.13
2022-08-22T05:01:23.298Z,100363.81
2022-08-22T05:03:58.424Z,100363.73
2022-08-22T05:06:33.685Z,100369.58
2022-08-22T05:09:14.212Z,100371.05
2022-08-22T05:11:50.320Z,100374.02
2022-08-22T05:14:26.732Z,100377.71
2022-08-22T05:17:00.908Z,100383.80
2022-08-22T05:19:35.492Z,100379.79
2022-08-22T05:22:13.305Z,100376.84
2022-08-22T05:24:47.781Z,100382.10
2022-08-22T05:27:22.188Z,100385.58
2022-08-22T05:29:58.771Z,100388.61
2022-08-22T05:32:34.400Z,100389.02
2022-08-22T05:35:09.686Z,100390.63
2022-08-22T05:37:45.093Z,100394.48
2022-08-22T05:40:21.607Z,100393.52
2022-08-22T05:42:53.647Z,100401.69
2022-08-22T05:45:26.396Z,100401.83
2022-08-22T05:48:04.302Z,100401.64
2022-08-22T05:50:41.048Z,100403.98
2022-08-22T05:53:16.666Z,100406.55
2022-08-22T05:55:57.955Z,100405.59
2022-08-22T05:58:49.257Z,100408.69
2022-08-22T06:01:31.365Z,100408.52
2022-08-22T06:04:16.525Z,100411.17
2022-08-22T06:06:57.566Z,100412.23
2022-08-22T06:09:36.013Z,100413.66
2022-08-22T06:12:21.940Z,100413.41
2022-08-22T06:15:02.576Z,100411.09
2022-08-22T06:17:48.082Z,100408.58
2022-08-22T06:20:28.660Z,100405.98
2022-08-22T06:23:02.601Z,100404.34
2022-08-22T06:25:36.094Z,100404.90
2022-08-22T06:28:14.880Z,100407.77
2022-08-22T06:30:49.496Z,100411.02
2022-08-22T06:33:27.531Z,100413.05
2022-08-22T06:36:21.231Z,100414.88
2022-08-22T06:39:07.648Z,100416.77
2022-08-22T06:41:42.388Z,100420.02
2022-08-22T06:44:19.209Z,100417.65
2022-08-22T06:46:52.129Z,100420.82
2022-08-22T06:49:26.201Z,100417.13
2022-08-22T06:52:02.999Z,100415.88
2022-08-22T06:54:38.045Z,100413.55
2022-08-22T06:57:27.161Z,100415.46
2022-08-22T06:59:59.989Z,100418.85
2022-08-22T07:02:36.809Z,100417.80
2022-08-22T07:05:11.094Z,100417.77
2022-08-22T07:07:42.050Z,100415.15
2022-08-22T07:10:16.010Z,100415.23
2022-08-22T07:12:50.888Z,100417.31
2022-08-22T07:15:35.422Z,100416.67
2022-08-22T07:18:08.928Z,100420.63
2022-08-22T07:20:45.321Z,100420.84
2022-08-22T07:23:31.679Z,100424.41
2022-08-22T07:26:30.054Z,100421.33
2022-08-22T07:29:11.271Z,100421.11
2022-08-22T07:31:53.371Z,100423.35
2022-08-22T07:34:40.707Z,100423.20
2022-08-22T07:37:20.549Z,100419.52
2022-08-22T07:39:56.229Z,100417.96
2022-08-22T07:42:38.514Z,100421.27
2022-08-22T07:45:13.553Z,100421.66
2022-08-22T07:48:06.886Z,100423.16
2022-08-22T07:50:44.058Z,100422.33
2022-08-22T07:53:23.412Z,100424.84
2022-08-22T07:55:56.196Z,100423.64
2022-08-22T07:58:29.725Z,100424.02
2022-08-22T08:01:01.297Z,100421.92
2022-08-22T08:03:33.087Z,100420.59
2022-08-22T08:06:05.501Z,100420.20
2022-08-22T08:08:41.804Z,100419.72
2022-08-22T08:11:16.080Z,100415.88
2022-08-22T08:13:52.777Z,100420.19
2022-08-22T08:16:28.008Z,100421.72
2022-08-22T08:19:01.821Z,100420.38
2022-08-22T08:21:37.431Z,100419.86
2022-08-22T08:24:15.105Z,100419.59
2022-08-22T08:27:05.155Z,100414.72
2022-08-22T08:29:37.413Z,100412.35
2022-08-22T08:32:11.770Z,100407.88
2022-08-22T08:34:45.700Z,100409.05
2022-08-22T08:37:23.108Z,100405.16
2022-08-22T08:39:58.114Z,100398.47
2022-08-22T08:43:00.276Z,100404.21
2022-08-22T08:45:58.291Z,100403.27
2022-08-22T08:48:53.372Z,100401.98
2022-08-22T08:51:43.176Z,100397.89
2022-08-22T08:54:55.538Z,100400.39
2022-08-22T08:57:42.168Z,100398.86
2022-08-22T09:00:18.983Z,100395.34
2022-08-22T09:02:58.891Z,100395.98
2022-08-22T09:05:58.785Z,100396.48
2022-08-22T09:08:55.516Z,100400.86
2022-08-22T09:12:10.863Z,100398.20
2022-08-22T09:15:15.065Z,100400.29
2022-08-22T09:18:18.386Z,100402.84
2022-08-22T09:21:14.154Z,100400.73
2022-08-22T09:24:09.742Z,100403.52
2022-08-22T09:26:51.433Z,100405.42
2022-08-22T09:29:55.229Z,100402.38
2022-08-22T09:32:44.113Z,100401.24
2022-08-22T09:35:25.225Z,100404.83
2022-08-22T09:38:19.590Z,100406.22
2022-08-22T09:40:56.195Z,100408.73
2022-08-22T09:43:45.734Z,100407.96
2022-08-22T09:46:31.388Z,100412.58
2022-08-22T09:49:14.139Z,100408.74
2022-08-22T09:51:58.643Z,100408.31
2022-08-22T09:54:35.921Z,100407.96
2022-08-22T09:57:22.442Z,100406.14
2022-08-22T10:00:16.157Z,100410.66
2022-08-22T10:02:55.204Z,100406.31
2022-08-22T10:05:40.514Z,100411.20
2022-08-22T10:08:31.452Z,100410.97
2022-08-22T10:11:24.594Z,100405.27
2022-08-22T10:14:01.896Z,100405.88
2022-08-22T10:16:48.735Z,100406.11
2022-08-22T10:19:26.288Z,100406.14
2022-08-22T10:25:07.592Z,100408.95
2022-08-22T10:28:10.627Z,100411.00
2022-08-22T10:30:54.803Z,100412.30
2022-08-22T10:33:33.423Z,100413.29
2022-08-22T10:36:11.741Z,100417.08
2022-08-22T10:38:47.221Z,100419.84
2022-08-22T10:41:30.535Z,100415.63
2022-08-22T10:44:10.945Z,100415.92
2022-08-22T10:46:49.891Z,100412.52
2022-08-22T10:49:29.270Z,100412.77
2022-08-22T10:52:15.853Z,100409.89
2022-08-22T10:54:52.619Z,100408.63
2022-08-22T10:57:42.720Z,100407.88
2022-08-22T11:00:38.559Z,100408.94
2022-08-22T11:03:25.008Z,100409.00
2022-08-22T11:06:00.058Z,100408.20
2022-08-22T11:08:55.084Z,100412.67
2022-08-22T11:11:43.453Z,100411.27
2022-08-22T11:14:38.817Z,100412.77
2022-08-22T11:17:27.557Z,100410.69
2022-08-22T11:20:19.481Z,100411.35
2022-08-22T11:23:08.143Z,100418.17
2022-08-22T11:25:56.662Z,100419.08
2022-08-22T11:29:02.839Z,100420.11
2022-08-22T11:32:00.390Z,100421.45
2022-08-22T11:34:57.100Z,100419.20
2022-08-22T11:37:54.918Z,100416.27
2022-08-22T11:40:42.529Z,100420.52
2022-08-22T11:43:39.318Z,100418.44
2022-08-22T11:46:25.824Z,100424.45
2022-08-22T11:49:14.437Z,100424.25
2022-08-22T11:52:00.845Z,100424.88
2022-08-22T11:54:42.997Z,100420.02
2022-08-22T11:57:18.229Z,100421.72
2022-08-22T12:00:10.737Z,100424.98
2022-08-22T12:02:50.421Z,100422.95
2022-08-22T12:05:26.190Z,100423.77
2022-08-22T12:08:05.226Z,100421.04
2022-08-22T12:10:44.320Z,100419.85
2022-08-22T12:13:34.142Z,100416.66
2022-08-22T12:16:15.832Z,100415.82
2022-08-22T12:18:56.171Z,100418.88
2022-08-22T12:21:53.971Z,100411.98
2022-08-22T12:24:49.397Z,100411.53
2022-08-22T12:27:48.093Z,100411.36
2022-08-22T12:30:29.885Z,100410.16
2022-08-22T12:33:28.245Z,100406.93
2022-08-22T12:36:26.338Z,100404.48
2022-08-22T12:39:37.461Z,100403.39
2022-08-22T12:42:31.668Z,100398.48
2022-08-22T12:45:27.095Z,100391.91
2022-08-22T12:48:10.542Z,100387.67
2022-08-22T12:50:48.480Z,100385.80
2022-08-22T12:53:35.800Z,100382.93
2022-08-22T12:56:16.620Z,100389.91
2022-08-22T12:59:21.155Z,100384.07
2022-08-22T13:01:54.110Z,100390.86
2022-08-22T13:04:33.361Z,100386.51
2022-08-22T13:07:22.625Z,100385.81
2022-08-22T13:09:58.813Z,100379.55
2022-08-22T13:12:34.244Z,100381.56
2022-08-22T13:15:17.794Z,100381.89
2022-08-22T13:17:53.126Z,100386.60
2022-08-22T13:20:28.457Z,100377.88
2022-08-22T13:23:00.918Z,100378.43
2022-08-22T13:25:53.180Z,100379.48
2022-08-22T13:28:27.344Z,100383.61
2022-08-22T13:30:59.871Z,100384.97
2022-08-22T13:33:36.708Z,100385.65
2022-08-22T13:36:15.532Z,100389.80
2022-08-22T13:38:54.291Z,100391.80
2022-08-22T13:41:29.688Z,100386.61
2022-08-22T13:44:17.786Z,100383.94
2022-08-22T13:47:12.835Z,100383.91
2022-08-22T13:49:43.669Z,100385.49
2022-08-22T13:52:30.395Z,100383.91
2022-08-22T13:55:12.614Z,100382.30
2022-08-22T13:57:51.911Z,100385.63
2022-08-22T14:01:07.475Z,100382.02
2022-08-22T14:03:49.236Z,100380.68
2022-08-22T14:06:38.282Z,100381.59
2022-08-22T14:09:31.577Z,100378.11
2022-08-22T14:12:13.665Z,100375.73
2022-08-22T14:14:47.262Z,100371.45
2022-08-22T14:17:21.943Z,100369.48
2022-08-22T14:20:01.724Z,100365.29
2022-08-22T14:22:36.359Z,100367.48
2022-08-22T14:25:17.935Z,100359.77
2022-08-22T14:28:06.468Z,100358.52
2022-08-22T14:31:00.536Z,100360.52
2022-08-22T14:33:39.898Z,100359.14
2022-08-22T14:36:18.493Z,100361.67
2022-08-22T14:38:56.234Z,100362.09
2022-08-22T14:41:52.306Z,100359.41
2022-08-22T14:44:28.012Z,100362.38
2022-08-22T14:47:03.786Z,100360.04
2022-08-22T14:49:49.670Z,100356.16
2022-08-22T14:52:38.696Z,100361.04
2022-08-22T14:55:28.355Z,100361.19
2022-08-22T14:58:05.834Z,100360.15
2022-08-22T15:00:40.893Z,100362.25
2022-08-22T15:03:23.221Z,100365.05
2022-08-22T15:05:57.460Z,100361.61
2022-08-22T15:08:33.936Z,100362.17
2022-08-22T15:11:15.334Z,100362.61
2022-08-22T15:13:57.832Z,100362.64
2022-08-22T15:16:33.818Z,100366.13
2022-08-22T15:19:22.182Z,100366.50
2022-08-22T15:22:04.889Z,100364.65
2022-08-22T15:24:57.507Z,100368.90
2022-08-22T15:27:32.809Z,100362.27
2022-08-22T15:30:07.511Z,100360.75
2022-08-22T15:32:51.597Z,100364.04
2022-08-22T15:35:32.192Z,100363.61
2022-08-22T15:38:05.866Z,100366.52
2022-08-22T15:40:41.651Z,100364.19
2022-08-22T15:43:26.767Z,100362.65
2022-08-22T15:46:27.388Z,100363.10
2022-08-22T15:49:01.755Z,100362.85
2022-08-22T15:51:41.986Z,100362.82
2022-08-22T15:54:25.363Z,100359.67
2022-08-22T15:57:19.519Z,100357.06
2022-08-22T16:00:00.322Z,100353.07
2022-08-22T16:02:35.340Z,100352.89
2022-08-22T16:05:26.415Z,100350.80
2022-08-22T16:08:06.475Z,100349.77
2022-08-22T16:10:43.120Z,100352.33
2022-08-22T16:13:33.656Z,100351.96
2022-08-22T16:16:09.133Z,100351.02
2022-08-22T16:19:14.596Z,100350.26
2022-08-22T16:22:12.971Z,100348.05
2022-08-22T16:25:06.200Z,100351.15
2022-08-22T16:27:55.514Z,100358.91
2022-08-22T16:30:39.079Z,100359.09
2022-08-22T16:33:18.324Z,100358.58
2022-08-22T16:36:24.557Z,100357.80
2022-08-22T16:38:58.367Z,100356.50
2022-08-22T16:41:40.249Z,100363.45
2022-08-22T16:44:40.011Z,100365.55
2022-08-22T16:47:15.057Z,100373.54
2022-08-22T16:50:01.781Z,100372.39
2022-08-22T16:52:57.942Z,100378.63
2022-08-22T16:56:08.975Z,100381.63
2022-08-22T16:59:19.700Z,100382.05
2022-08-22T17:02:10.830Z,100382.48
2022-08-22T17:04:51.922Z,100379.43
2022-08-22T17:07:37.124Z,100382.02
2022-08-22T17:10:30.973Z,100385.02
2022-08-22T17:13:18.356Z,100390.08
2022-08-22T17:16:15.550Z,100394.17
2022-08-22T17:19:05.129Z,100398.65
2022-08-22T17:21:51.787Z,100396.06
2022-08-22T17:24:37.223Z,100395.62
2022-08-22T17:27:23.409Z,100396.77
2022-08-22T17:30:07.016Z,100406.14
2022-08-22T17:32:59.727Z,100404.14
2022-08-22T17:35:46.998Z,100406.20
2022-08-22T17:38:26.335Z,100408.00
2022-08-22T17:41:05.412Z,100407.40
2022-08-22T17:43:51.529Z,100401.64
2022-08-22T17:46:37.659Z,100405.92
2022-08-22T17:49:26.944Z,100407.75
2022-08-22T17:52:07.687Z,100406.25
2022-08-22T17:54:42.317Z,100406.10
2022-08-22T17:57:24.090Z,100407.80
2022-08-22T17:59:59.520Z,100413.38
2022-08-22T18:02:33.798Z,100416.55
2022-08-22T18:05:11.635Z,100416.13
2022-08-22T18:08:01.757Z,100420.27
2022-08-22T18:10:42.854Z,100422.50
2022-08-22T18:13:20.319Z,100420.05
2022-08-22T18:15:56.666Z,100425.52
2022-08-22T18:18:34.544Z,100422.11
2022-08-22T18:21:12.071Z,100424.51
2022-08-22T18:23:49.823Z,100427.61
2022-08-22T18:26:29.721Z,100428.49
2022-08-22T18:29:08.600Z,100430.15
2022-08-22T18:31:49.322Z,100432.35
2022-08-22T18:34:30.127Z,100432.08
2022-08-22T18:37:07.274Z,100433.77
2022-08-22T18:39:48.466Z,100433.42
2022-08-22T18:42:31.385Z,100434.41
2022-08-22T18:45:02.180Z,100430.39
2022-08-22T18:47:35.827Z,100431.40
2022-08-22T18:50:32.530Z,100431.14
2022-08-22T18:53:04.223Z,100431.52
2022-08-22T18:55:51.476Z,100431.38
2022-08-22T18:58:42.671Z,100431.05
2022-08-22T19:01:31.172Z,100426.29
2022-08-22T19:04:45.756Z,100429.64
2022-08-22T19:07:52.137Z,100432.98
2022-08-22T19:10:47.342Z,100433.95
2022-08-22T19:13:47.551Z,100434.75
2022-08-22T19:16:46.530Z,100434.04
2022-08-22T19:19:21.545Z,100437.10
2022-08-22T19:22:29.159Z,100439.25
2022-08-22T19:25:18.662Z,100436.77
2022-08-22T19:28:26.775Z,100437.45
2022-08-22T19:31:28.646Z,100435.41
2022-08-22T19:34:17.985Z,100437.04
2022-08-22T19:37:09.393Z,100434.98
2022-08-22T19:39:54.681Z,100434.33
2022-08-22T19:42:41.404Z,100431.12
2022-08-22T19:45:25.691Z,100437.00
2022-08-22T19:48:02.098Z,100435.98
2022-08-22T19:50:39.232Z,100442.40
2022-08-22T19:53:35.474Z,100444.27
2022-08-22T19:56:13.515Z,100445.41
2022-08-22T19:58:56.338Z,100443.13
2022-08-22T20:01:42.552Z,100446.00
2022-08-22T20:04:37.256Z,100448.02
2022-08-22T20:07:17.172Z,100449.08
2022-08-22T20:09:57.311Z,100448.33
2022-08-22T20:12:50.140Z,100447.55
2022-08-22T20:15:23.160Z,100447.78
2022-08-22T20:21:02.915Z,100441.40
2022-08-22T20:23:34.548Z,100444.09
2022-08-22T20:26:07.418Z,100442.08
2022-08-22T20:28:48.899Z,100441.04
2022-08-22T20:31:28.191Z,100440.80
2022-08-22T20:34:03.252Z,100439.80
2022-08-22T20:36:34.568Z,100435.81
2022-08-22T20:39:09.482Z,100438.43
2022-08-22T20:41:43.731Z,100436.06
2022-08-22T20:44:20.794Z,100431.02
2022-08-22T20:46:57.574Z,100431.04
2022-08-22T20:49:32.562Z,100430.58
2022-08-22T20:52:05.938Z,100427.56
2022-08-22T20:54:39.993Z,100428.38
2022-08-22T20:57:17.162Z,100425.16
2022-08-22T20:59:55.008Z,100419.85
2022-08-22T21:02:28.643Z,100420.04
2022-08-22T21:05:03.757Z,100418.66
2022-08-22T21:07:37.573Z,100423.23
2022-08-22T21:10:33.981Z,100425.61
2022-08-22T21:13:11.553Z,100424.55
2022-08-22T21:15:45.597Z,100423.60
2022-08-22T21:18:29.919Z,100425.15
2022-08-22T21:21:16.922Z,100425.31
2022-08-22T21:23:50.306Z,100425.08
2022-08-22T21:26:27.459Z,100424.83
2022-08-22T21:29:02.091Z,100423.94
2022-08-22T21:31:36.086Z,100425.26
2022-08-22T21:34:13.114Z,100424.10
2022-08-22T21:36:44.310Z,100430.77
2022-08-22T21:39:21.026Z,100429.86
2022-08-22T21:41:53.952Z,100426.37
2022-08-22T21:44:34.516Z,100429.38
2022-08-22T21:47:30.191Z,100428.92
2022-08-22T21:50:25.897Z,100426.95
2022-08-22T21:53:11.305Z,100429.02
2022-08-22T21:55:47.039Z,100427.35
2022-08-22T21:58:37.185Z,100431.11
2022-08-22T22:01:32.097Z,100423.70
2022-08-22T22:04:03.043Z,100420.59
2022-08-22T22:06:33.766Z,100417.55
2022-08-22T22:09:04.475Z,100412.11
2022-08-22T22:11:35.301Z,100423.55
2022-08-22T22:14:06.488Z,100420.96
2022-08-22T22:16:38.392Z,100420.77
2022-08-22T22:19:11.167Z,100418.25
2022-08-22T22:21:41.826Z,100416.16
2022-08-22T22:24:12.596Z,100419.60
2022-08-22T22:26:43.323Z,100419.65
2022-08-22T22:29:14.008Z,100421.21
2022-08-22T22:31:44.860Z,100417.20
2022-08-22T22:34:15.941Z,100421.91
2022-08-22T22:36:46.886Z,100420.29
2022-08-22T22:39:18.276Z,100413.13
2022-08-22T22:41:49.003Z,100410.20
2022-08-22T22:44:22.236Z,100414.48
2022-08-22T22:46:56.794Z,100416.75
2022-08-22T22:49:27.451Z,100414.21
2022-08-22T22:51:58.150Z,100409.75
2022-08-22T22:54:29.645Z,100404.92
2022-08-22T22:57:00.664Z,100404.86
2022-08-22T22:59:32.598Z,100402.41
2022-08-22T23:02:06.211Z,100405.42
2022-08-22T23:04:39.930Z,100406.98
2022-08-22T23:07:12.119Z,100407.00
2022-08-22T23:09:44.689Z,100407.42
2022-08-22T23:12:16.333Z,100411.39
2022-08-22T23:14:47.086Z,100407.83
2022-08-22T23:17:18.021Z,100407.95
2022-08-22T23:19:48.895Z,100404.46
2022-08-22T23:22:19.747Z,100404.23
2022-08-22T23:24:52.078Z,100403.11
2022-08-22T23:27:22.915Z,100400.33
2022-08-22T23:29:53.697Z,100396.92
2022-08-22T23:32:24.377Z,100400.88
2022-08-22T23:34:56.285Z,100403.40
2022-08-22T23:37:27.264Z,100395.61
2022-08-22T23:39:57.994Z,100396.02
2022-08-22T23:42:29.789Z,100394.36
2022-08-22T23:45:00.634Z,100397.40
2022-08-22T23:47:31.356Z,100400.86
2022-08-22T23:50:05.984Z,100404.35
2022-08-22T23:52:37.301Z,100404.75
2022-08-22T23:55:09.663Z,100404.19
2022-08-22T23:57:40.469Z,100404.65
